Time;durP1;ratioP1;P1;durP2;ratioP2;P2;SDS_P1;SDS_P2;PMS_P1;PMS_P2;Temp;Humidity;BMP_temperature;BMP_pressure;BME280_temperature;BME280_humidity;BME280_pressure;Samples;Min_cycle;Max_cycle;Signal;HPM_P1;HPM_P2
2021/01/03 00:01:13;;;;;;;18.95;6.50;;;26.10;44.50;;;;;;5095634;28;20050;-46
2021/01/03 00:03:41;;;;;;;14.10;6.68;;;26.00;44.60;;;;;;5094422;28;20024;-47
2021/01/03 00:06:08;;;;;;;13.25;6.70;;;26.00;44.70;;;;;;5095019;28;20088;-46
2021/01/03 00:08:35;;;;;;;24.15;10.18;;;25.90;44.70;;;;;;5094930;28;20119;-46
2021/01/03 00:11:02;;;;;;;16.25;7.65;;;25.90;44.90;;;;;;5094315;28;20031;-46
2021/01/03 00:13:29;;;;;;;14.43;7.18;;;25.90;45.10;;;;;;5094432;28;20380;-46
2021/01/03 00:15:55;;;;;;;15.55;6.95;;;25.80;45.10;;;;;;5094795;28;20472;-46
2021/01/03 00:18:22;;;;;;;14.95;6.97;;;25.80;45.30;;;;;;5094484;28;20036;-47
2021/01/03 00:20:48;;;;;;;17.20;6.78;;;25.80;45.30;;;;;;5094675;28;20028;-46
2021/01/03 00:23:15;;;;;;;17.92;6.95;;;25.80;45.40;;;;;;5094809;28;20025;-46
2021/01/03 00:25:41;;;;;;;13.95;7.30;;;25.80;45.40;;;;;;5094822;28;20059;-47
2021/01/03 00:28:08;;;;;;;14.82;7.15;;;25.70;45.40;;;;;;5094643;28;20020;-47
2021/01/03 00:30:34;;;;;;;17.48;7.13;;;25.70;45.40;;;;;;5094657;28;20112;-47
2021/01/03 00:33:01;;;;;;;14.60;6.55;;;25.70;45.50;;;;;;5094679;28;20107;-47
2021/01/03 00:35:34;;;;;;;14.48;7.13;;;25.60;45.40;;;;;;5094606;28;20026;-47
2021/01/03 00:38:03;;;;;;;12.32;6.55;;;25.60;45.60;;;;;;5093969;28;20100;-46
2021/01/03 00:40:30;;;;;;;12.25;7.05;;;25.60;45.60;;;;;;5094462;28;20109;-46
2021/01/03 00:42:57;;;;;;;14.43;6.90;;;25.50;45.60;;;;;;5076216;28;20419;-47
2021/01/03 00:45:24;;;;;;;13.82;7.20;;;25.50;45.70;;;;;;5094392;28;20074;-47
2021/01/03 00:47:51;;;;;;;13.27;6.88;;;25.40;45.60;;;;;;5094252;28;20094;-47
2021/01/03 00:50:18;;;;;;;14.60;7.05;;;25.30;45.70;;;;;;5093898;28;20412;-47
2021/01/03 00:52:45;;;;;;;23.70;15.93;;;25.30;45.80;;;;;;5092592;28;20067;-47
2021/01/03 00:55:12;;;;;;;23.42;12.85;;;25.30;45.90;;;;;;5093831;28;20144;-46
2021/01/03 00:57:39;;;;;;;23.40;12.00;;;25.20;46.10;;;;;;5094462;28;20032;-46
2021/01/03 01:00:12;;;;;;;23.20;12.25;;;25.20;46.40;;;;;;5079878;28;20043;-46
2021/01/03 01:02:39;;;;;;;21.60;12.73;;;25.10;46.40;;;;;;5079258;28;20028;-46
2021/01/03 01:05:06;;;;;;;18.98;11.85;;;25.10;46.60;;;;;;5093841;28;20016;-46
2021/01/03 01:07:32;;;;;;;21.23;11.90;;;25.00;46.60;;;;;;5094944;28;20031;-47
2021/01/03 01:09:59;;;;;;;17.95;11.80;;;24.90;46.60;;;;;;5093755;28;20027;-46
2021/01/03 01:12:27;;;;;;;23.60;12.60;;;24.90;46.80;;;;;;5093530;28;20032;-46
2021/01/03 01:14:53;;;;;;;24.75;12.20;;;24.90;46.80;;;;;;5093867;28;20055;-47
2021/01/03 01:17:20;;;;;;;18.73;11.38;;;24.90;46.90;;;;;;5092925;28;20028;-48
2021/01/03 01:19:46;;;;;;;19.05;11.23;;;24.90;47.00;;;;;;5096045;28;20097;-48
2021/01/03 01:22:13;;;;;;;17.42;11.27;;;24.90;46.90;;;;;;5093899;28;20117;-52
2021/01/03 01:24:39;;;;;;;25.15;11.07;;;24.90;47.00;;;;;;5093462;28;20036;-51
2021/01/03 01:27:06;;;;;;;28.40;10.50;;;24.90;47.10;;;;;;5093468;28;20036;-48
2021/01/03 01:29:32;;;;;;;21.75;10.70;;;25.00;47.30;;;;;;5094075;28;20070;-47
2021/01/03 01:31:59;;;;;;;26.08;10.43;;;25.10;47.60;;;;;;5093590;28;20027;-47
2021/01/03 01:34:25;;;;;;;20.25;9.55;;;25.10;47.70;;;;;;5094159;28;20485;-47
2021/01/03 01:36:52;;;;;;;20.55;10.70;;;25.20;47.90;;;;;;5093506;28;20035;-47
2021/01/03 01:39:18;;;;;;;23.85;9.25;;;25.20;48.00;;;;;;5093830;28;20111;-47
2021/01/03 01:41:45;;;;;;;16.65;9.40;;;25.20;48.20;;;;;;5093606;28;20373;-48
2021/01/03 01:44:11;;;;;;;20.90;9.70;;;25.30;48.40;;;;;;5093442;28;20144;-48
2021/01/03 01:46:46;;;;;;;16.45;9.30;;;25.40;48.50;;;;;;5093666;28;20035;-47
2021/01/03 01:49:14;;;;;;;19.83;8.30;;;25.50;48.70;;;;;;5095336;28;20025;-47
2021/01/03 01:51:45;;;;;;;17.33;8.60;;;25.50;48.80;;;;;;5098309;28;20407;-47
2021/01/03 01:54:24;;;;;;;12.73;7.60;;;25.60;48.80;;;;;;5097548;28;20035;-48
2021/01/03 01:57:01;;;;;;;15.40;8.40;;;25.60;48.80;;;;;;5098097;28;20261;-47
2021/01/03 01:59:51;;;;;;;15.98;8.52;;;25.70;48.90;;;;;;5097566;28;20385;-48
2021/01/03 02:02:53;;;;;;;17.52;8.10;;;25.70;48.90;;;;;;5097883;28;20070;-48
2021/01/03 02:05:40;;;;;;;14.85;7.88;;;25.80;49.00;;;;;;5097170;28;20536;-48
2021/01/03 02:08:18;;;;;;;17.27;7.90;;;25.80;49.00;;;;;;5097541;28;20028;-47
2021/01/03 02:10:47;;;;;;;14.35;6.97;;;25.80;49.10;;;;;;5097988;28;20034;-47
2021/01/03 02:13:19;;;;;;;20.17;7.68;;;25.80;49.10;;;;;;5097091;28;20026;-47
2021/01/03 02:15:47;;;;;;;14.95;7.43;;;25.90;49.20;;;;;;5097311;28;20086;-47
2021/01/03 02:18:15;;;;;;;16.30;7.40;;;25.90;49.20;;;;;;5097323;28;20031;-48
2021/01/03 02:21:07;;;;;;;15.30;7.47;;;25.90;49.20;;;;;;5096955;28;20490;-48
2021/01/03 02:24:02;;;;;;;15.57;7.65;;;25.90;49.20;;;;;;5093578;28;20036;-47
2021/01/03 02:26:34;;;;;;;12.38;6.93;;;25.90;49.20;;;;;;5097374;28;20028;-48
2021/01/03 02:29:01;;;;;;;15.90;6.85;;;25.90;49.20;;;;;;5097898;28;20020;-48
2021/01/03 02:31:36;;;;;;;16.17;6.85;;;26.00;49.30;;;;;;5096731;28;20024;-48
2021/01/03 02:34:06;;;;;;;15.05;6.63;;;26.00;49.40;;;;;;5097004;28;20094;-47
2021/01/03 02:36:45;;;;;;;12.77;6.70;;;26.00;49.40;;;;;;5097724;28;20115;-48
2021/01/03 02:39:30;;;;;;;11.35;6.57;;;26.00;49.40;;;;;;5096897;28;20036;-48
2021/01/03 02:42:00;;;;;;;13.50;5.95;;;26.00;49.50;;;;;;5096808;28;20552;-48
2021/01/03 02:44:27;;;;;;;12.75;6.05;;;26.00;49.50;;;;;;5096837;28;20035;-47
2021/01/03 02:46:56;;;;;;;10.80;5.88;;;26.00;49.50;;;;;;5096721;28;20028;-47
2021/01/03 02:49:23;;;;;;;11.45;5.85;;;26.00;49.50;;;;;;5095883;28;20481;-48
2021/01/03 02:51:50;;;;;;;10.32;6.00;;;26.00;49.50;;;;;;5096240;28;20031;-48
2021/01/03 02:54:16;;;;;;;11.60;5.75;;;26.00;49.50;;;;;;5096648;28;20059;-47
2021/01/03 02:56:44;;;;;;;10.05;5.90;;;26.00;49.60;;;;;;5096446;28;20020;-48
2021/01/03 02:59:10;;;;;;;10.02;5.70;;;26.00;49.60;;;;;;5095988;28;20020;-48
2021/01/03 03:01:37;;;;;;;7.65;5.10;;;26.00;49.60;;;;;;5097002;28;20036;-48
2021/01/03 03:04:03;;;;;;;8.35;5.03;;;26.00;49.60;;;;;;5096149;28;20461;-47
2021/01/03 03:06:30;;;;;;;9.18;5.60;;;26.00;49.60;;;;;;5096032;28;20076;-47
2021/01/03 03:08:56;;;;;;;8.57;5.25;;;26.00;49.60;;;;;;5096303;28;20016;-47
2021/01/03 03:11:23;;;;;;;10.25;5.28;;;25.90;49.50;;;;;;5096484;28;20028;-47
2021/01/03 03:13:49;;;;;;;9.93;5.18;;;26.00;49.60;;;;;;5096168;28;20162;-47
2021/01/03 03:16:18;;;;;;;8.02;4.75;;;25.90;49.60;;;;;;5096171;28;20381;-47
2021/01/03 03:18:44;;;;;;;9.07;4.95;;;25.90;49.60;;;;;;5077395;28;20409;-47
2021/01/03 03:21:11;;;;;;;12.82;5.25;;;25.90;49.60;;;;;;5096029;28;20031;-48
2021/01/03 03:23:38;;;;;;;9.98;4.28;;;25.90;49.70;;;;;;5095379;28;20385;-47
2021/01/03 03:26:04;;;;;;;8.73;4.70;;;25.90;49.70;;;;;;5095700;28;20025;-47
2021/01/03 03:28:30;;;;;;;8.60;4.70;;;25.90;49.70;;;;;;5095845;28;20028;-47
2021/01/03 03:30:57;;;;;;;11.32;4.63;;;25.80;49.80;;;;;;5095023;28;20035;-48
2021/01/03 03:33:23;;;;;;;9.07;4.60;;;25.80;49.80;;;;;;5094306;28;20023;-48
2021/01/03 03:35:50;;;;;;;7.68;4.10;;;25.80;49.80;;;;;;5095341;28;20038;-48
2021/01/03 03:38:16;;;;;;;9.13;3.83;;;25.80;50.00;;;;;;5095042;28;20119;-47
2021/01/03 03:40:43;;;;;;;9.63;4.25;;;25.80;50.00;;;;;;5095651;28;20023;-47
2021/01/03 03:43:10;;;;;;;7.45;3.95;;;25.80;50.00;;;;;;5095495;28;20107;-47
2021/01/03 03:45:36;;;;;;;7.15;3.65;;;25.70;50.10;;;;;;5091774;28;20106;-47
2021/01/03 03:48:03;;;;;;;13.75;4.25;;;25.60;50.10;;;;;;5086217;28;20027;-47
2021/01/03 03:50:30;;;;;;;9.18;4.38;;;25.70;50.70;;;;;;5075223;28;20369;-48
2021/01/03 03:52:56;;;;;;;10.60;3.60;;;25.60;50.90;;;;;;5089650;28;20496;-47
2021/01/03 03:55:23;;;;;;;9.27;3.85;;;25.70;51.20;;;;;;5095901;28;20116;-48
2021/01/03 03:57:50;;;;;;;11.23;4.30;;;25.60;51.40;;;;;;5095255;28;20060;-48
2021/01/03 04:00:19;;;;;;;10.30;4.43;;;25.60;51.60;;;;;;5095532;28;20024;-48
2021/01/03 04:02:47;;;;;;;12.02;4.53;;;25.60;51.70;;;;;;5095102;28;20036;-47
2021/01/03 04:05:17;;;;;;;11.18;4.03;;;25.60;51.70;;;;;;5094609;28;20039;-47
2021/01/03 04:07:44;;;;;;;13.93;4.10;;;25.60;51.70;;;;;;5095008;28;20075;-46
2021/01/03 04:10:11;;;;;;;14.95;4.50;;;25.50;51.70;;;;;;5094968;28;20034;-46
2021/01/03 04:12:38;;;;;;;8.27;3.88;;;25.50;51.60;;;;;;5093837;28;20397;-46
2021/01/03 04:15:10;;;;;;;15.18;3.90;;;25.50;51.60;;;;;;5095278;28;20548;-47
2021/01/03 04:17:37;;;;;;;14.25;4.10;;;25.50;51.70;;;;;;5094854;28;20376;-47
2021/01/03 04:20:14;;;;;;;8.48;3.50;;;25.50;51.70;;;;;;5094916;28;20039;-47
2021/01/03 04:22:41;;;;;;;8.48;3.90;;;25.50;51.70;;;;;;5094539;28;20382;-47
2021/01/03 04:25:08;;;;;;;15.10;4.70;;;25.50;51.70;;;;;;5094833;28;20416;-46
2021/01/03 04:27:34;;;;;;;7.55;3.50;;;25.50;51.60;;;;;;5095003;28;20032;-47
2021/01/03 04:30:01;;;;;;;8.77;3.80;;;25.50;51.60;;;;;;5094347;28;20028;-46
2021/01/03 04:32:27;;;;;;;9.75;3.78;;;25.50;51.60;;;;;;5094241;28;20028;-46
2021/01/03 04:34:54;;;;;;;8.27;3.60;;;25.60;52.20;;;;;;5094924;28;20042;-47
2021/01/03 04:37:20;;;;;;;8.48;3.90;;;25.60;51.50;;;;;;5094412;28;20143;-47
2021/01/03 04:39:48;;;;;;;10.45;3.67;;;25.60;51.50;;;;;;5094595;28;20035;-47
2021/01/03 04:42:20;;;;;;;14.18;4.00;;;25.70;51.40;;;;;;5094394;28;20106;-47
2021/01/03 04:44:51;;;;;;;9.00;3.92;;;25.80;51.50;;;;;;5094676;28;20465;-47
2021/01/03 04:47:37;;;;;;;;;;;25.80;51.40;;;;;;5094937;28;20027;-47
2021/01/03 04:50:22;;;;;;;10.45;3.92;;;25.90;51.50;;;;;;5094459;28;19904;-46
2021/01/03 04:53:01;;;;;;;10.10;3.75;;;25.90;51.30;;;;;;5094645;28;20073;-46
2021/01/03 04:55:30;;;;;;;10.82;4.30;;;26.00;51.20;;;;;;5094132;28;20055;-46
2021/01/03 04:58:03;;;;;;;8.90;3.53;;;26.00;51.10;;;;;;5094845;28;20032;-46
2021/01/03 05:00:37;;;;;;;7.97;3.90;;;26.10;51.10;;;;;;5094721;28;20073;-46
2021/01/03 05:03:31;;;;;;;14.63;4.07;;;26.10;51.60;;;;;;5094793;28;20103;-46
2021/01/03 05:06:06;;;;;;;8.15;3.83;;;26.10;50.90;;;;;;5094769;28;20059;-47
2021/01/03 05:08:42;;;;;;;11.32;3.65;;;26.20;50.80;;;;;;5093601;28;20031;-47
2021/01/03 05:11:13;;;;;;;11.88;3.75;;;26.30;50.70;;;;;;5094003;28;20085;-47
2021/01/03 05:14:02;;;;;;;8.80;3.78;;;26.30;50.70;;;;;;5093799;28;20074;-46
2021/01/03 05:16:28;;;;;;;13.27;4.15;;;26.30;50.60;;;;;;5093870;28;20024;-47
2021/01/03 05:18:55;;;;;;;7.68;3.72;;;26.40;50.70;;;;;;5093883;28;20032;-47
2021/01/03 05:21:21;;;;;;;11.02;4.18;;;26.40;50.60;;;;;;5093932;28;20028;-47
2021/01/03 05:24:00;;;;;;;13.15;4.28;;;26.50;50.50;;;;;;5093143;28;20385;-46
2021/01/03 05:26:32;;;;;;;9.75;3.70;;;26.50;50.40;;;;;;5093790;28;20070;-46
2021/01/03 05:29:00;;;;;;;8.07;3.60;;;26.50;50.30;;;;;;5093577;28;20470;-47
2021/01/03 05:31:27;;;;;;;8.38;3.50;;;26.50;50.10;;;;;;5093850;28;20078;-47
2021/01/03 05:33:54;;;;;;;8.77;3.53;;;26.60;50.20;;;;;;5093808;28;20069;-47
2021/01/03 05:36:45;;;;;;;7.68;3.80;;;26.60;50.10;;;;;;5093587;28;20078;-47
2021/01/03 05:39:18;;;;;;;10.30;3.90;;;26.60;50.00;;;;;;5080214;28;20059;-47
2021/01/03 05:41:44;;;;;;;9.13;3.85;;;26.60;49.90;;;;;;5094249;28;20149;-47
2021/01/03 05:44:23;;;;;;;7.13;3.63;;;26.60;49.90;;;;;;5092994;28;20028;-47
2021/01/03 05:47:01;;;;;;;15.68;4.13;;;26.60;49.80;;;;;;5093758;28;20035;-47
2021/01/03 05:49:29;;;;;;;6.00;3.47;;;26.60;49.70;;;;;;5093587;28;20451;-46
2021/01/03 05:52:08;;;;;;;6.38;3.33;;;26.60;49.70;;;;;;5093928;28;20020;-46
2021/01/03 05:54:37;;;;;;;5.90;3.35;;;26.60;49.60;;;;;;5093958;28;20021;-47
2021/01/03 05:57:32;;;;;;;7.68;3.45;;;26.60;49.60;;;;;;5092533;28;20414;-45
2021/01/03 06:00:13;;;;;;;8.65;3.60;;;26.50;49.60;;;;;;5088919;28;20110;-46
2021/01/03 06:02:39;;;;;;;6.57;3.28;;;26.50;49.50;;;;;;5093603;28;20031;-45
2021/01/03 06:05:11;;;;;;;5.72;3.50;;;26.50;49.50;;;;;;5093517;28;20028;-46
2021/01/03 06:07:38;;;;;;;8.73;4.03;;;26.50;49.60;;;;;;5093260;28;20034;-46
2021/01/03 06:10:29;;;;;;;11.05;3.92;;;26.40;49.40;;;;;;5093473;28;20500;-46
2021/01/03 06:13:01;;;;;;;7.60;3.90;;;26.40;50.20;;;;;;5093195;28;20389;-47
2021/01/03 06:15:28;;;;;;;;;;;26.30;49.30;;;;;;5093118;28;20473;-47
2021/01/03 06:17:59;;;;;;;15.95;4.32;;;26.30;49.40;;;;;;5091337;28;19919;-45
2021/01/03 17:49:48;;;;;;;24.67;4.18;;;15.40;67.20;;;;;;5131745;27;20415;-46
2021/01/03 17:52:18;;;;;;;30.35;5.68;;;15.40;68.60;;;;;;5132571;28;20027;-46
2021/01/03 17:54:45;;;;;;;27.75;4.82;;;15.50;68.40;;;;;;5131903;28;20073;-46
2021/01/03 17:57:11;;;;;;;26.08;4.80;;;15.50;68.10;;;;;;5131692;28;20045;-46
2021/01/03 17:59:38;;;;;;;23.23;4.95;;;15.60;67.80;;;;;;5118291;28;20441;-46
2021/01/03 18:02:08;;;;;;;25.88;5.22;;;15.60;67.40;;;;;;5111252;28;20024;-46
2021/01/03 18:04:35;;;;;;;21.27;5.22;;;15.70;67.20;;;;;;5105906;28;21715;-46
2021/01/03 18:07:05;;;;;;;25.95;4.90;;;15.80;67.00;;;;;;5113893;28;20038;-46
2021/01/03 18:09:32;;;;;;;17.88;4.82;;;15.80;66.70;;;;;;5109996;28;20028;-47
2021/01/03 18:11:59;;;;;;;21.92;5.18;;;15.80;66.50;;;;;;5110339;28;20028;-47
2021/01/03 18:14:25;;;;;;;24.25;4.53;;;15.90;66.40;;;;;;5110710;28;20024;-46
2021/01/03 18:16:52;;;;;;;23.95;5.32;;;15.90;66.10;;;;;;5110725;28;20028;-46
2021/01/03 18:19:19;;;;;;;24.27;4.72;;;15.90;66.00;;;;;;5111355;28;20036;-46
2021/01/03 18:21:46;;;;;;;18.40;4.22;;;16.00;65.80;;;;;;5110796;28;20024;-46
2021/01/03 18:24:17;;;;;;;18.30;4.70;;;16.00;65.60;;;;;;5110823;28;20023;-46
2021/01/03 18:26:46;;;;;;;22.67;4.43;;;16.10;65.40;;;;;;5110890;28;20169;-46
2021/01/03 18:29:16;;;;;;;22.17;4.93;;;16.10;65.90;;;;;;5110812;28;20020;-46
2021/01/03 18:31:47;;;;;;;18.95;4.88;;;16.10;65.20;;;;;;5110769;28;20023;-46
2021/01/03 18:34:14;;;;;;;21.52;4.50;;;16.20;65.10;;;;;;5110556;28;20361;-46
2021/01/03 18:36:56;;;;;;;16.83;4.82;;;16.20;64.90;;;;;;5110494;28;20028;-46
2021/01/03 18:39:24;;;;;;;14.30;3.75;;;16.20;64.70;;;;;;5110595;28;20039;-46
2021/01/03 18:41:54;;;;;;;24.10;4.80;;;16.20;65.20;;;;;;5110523;28;20047;-46
2021/01/03 18:44:21;;;;;;;17.15;4.78;;;16.30;64.50;;;;;;5110054;28;20136;-46
2021/01/03 18:46:49;;;;;;;21.58;4.43;;;16.30;64.30;;;;;;5110230;28;20423;-46
2021/01/03 18:49:16;;;;;;;17.77;4.45;;;16.30;64.20;;;;;;5104450;28;20040;-46
2021/01/03 18:51:43;;;;;;;17.35;4.78;;;16.30;64.20;;;;;;5096753;28;20027;-46
2021/01/03 18:54:11;;;;;;;19.85;4.03;;;16.30;64.10;;;;;;5096686;28;20059;-46
2021/01/03 18:56:37;;;;;;;20.15;4.10;;;16.40;64.00;;;;;;5096805;28;20107;-46
2021/01/03 18:59:05;;;;;;;19.50;4.32;;;16.40;63.90;;;;;;5096585;28;20024;-46
2021/01/03 19:01:36;;;;;;;13.38;4.25;;;16.30;63.70;;;;;;5096514;28;20054;-46
2021/01/03 19:04:05;;;;;;;16.52;4.20;;;16.40;63.70;;;;;;5096544;28;20024;-46
2021/01/03 19:06:42;;;;;;;18.05;4.05;;;16.30;63.60;;;;;;5096738;28;20027;-46
2021/01/03 19:09:15;;;;;;;13.10;3.83;;;16.40;63.50;;;;;;5096631;28;20060;-46
2021/01/03 19:11:42;;;;;;;12.55;4.10;;;16.40;63.50;;;;;;5096465;28;20020;-46
2021/01/03 19:14:09;;;;;;;22.73;4.40;;;16.40;63.40;;;;;;5096312;28;20028;-47
2021/01/03 19:16:39;;;;;;;14.73;3.72;;;16.40;63.30;;;;;;5096109;28;20089;-46
2021/01/03 19:19:07;;;;;;;13.52;3.88;;;16.40;63.20;;;;;;5095771;28;20147;-46
2021/01/03 19:21:34;;;;;;;10.10;3.50;;;16.40;63.10;;;;;;5095767;28;20480;-46
2021/01/03 19:24:02;;;;;;;14.13;4.40;;;16.40;63.10;;;;;;5096120;28;20475;-47
2021/01/03 19:26:28;;;;;;;12.75;3.95;;;16.40;63.10;;;;;;5096117;28;20032;-46
2021/01/03 19:28:55;;;;;;;11.00;3.85;;;16.40;63.00;;;;;;5096314;28;20358;-46
2021/01/03 19:31:27;;;;;;;9.52;3.53;;;16.40;62.90;;;;;;5096064;28;20046;-46
2021/01/03 19:33:55;;;;;;;11.70;4.00;;;16.40;62.80;;;;;;5095969;28;20150;-46
2021/01/03 19:36:26;;;;;;;11.35;3.67;;;16.40;62.80;;;;;;5077706;28;20024;-46
2021/01/03 19:38:53;;;;;;;11.27;3.50;;;16.40;62.70;;;;;;5096415;28;20030;-46
2021/01/03 19:41:32;;;;;;;12.43;3.70;;;16.50;62.80;;;;;;5095516;28;20388;-46
2021/01/03 19:44:00;;;;;;;11.70;3.80;;;16.40;62.70;;;;;;5095727;28;20477;-46
2021/01/03 19:46:30;;;;;;;13.07;3.60;;;16.40;62.60;;;;;;5095727;28;20024;-46
2021/01/03 19:48:59;;;;;;;12.80;3.40;;;16.40;62.60;;;;;;5095775;28;20473;-47
2021/01/03 19:51:28;;;;;;;6.70;3.22;;;16.40;62.50;;;;;;5095603;28;20469;-46
2021/01/03 19:53:55;;;;;;;14.55;3.67;;;16.40;62.50;;;;;;5095301;28;20020;-46
2021/01/03 19:56:22;;;;;;;9.73;3.20;;;16.40;62.40;;;;;;5095515;28;20107;-47
2021/01/03 19:58:49;;;;;;;12.65;3.35;;;16.40;62.40;;;;;;5095372;28;20028;-46
2021/01/03 20:01:21;;;;;;;9.27;3.47;;;16.40;62.40;;;;;;5094710;28;20028;-46
2021/01/03 20:03:49;;;;;;;10.27;3.30;;;16.40;62.30;;;;;;5095240;28;20028;-46
2021/01/03 20:06:26;;;;;;;7.90;3.25;;;16.40;62.30;;;;;;5094914;28;20024;-46
2021/01/03 20:08:54;;;;;;;11.90;3.42;;;16.40;62.20;;;;;;5095200;28;20031;-46
2021/01/03 20:11:28;;;;;;;10.52;3.70;;;16.40;62.20;;;;;;5095105;28;20024;-46
2021/01/03 20:13:56;;;;;;;11.20;3.05;;;16.40;62.20;;;;;;5094768;28;20031;-46
2021/01/03 20:16:41;;;;;;;6.13;2.95;;;16.40;62.20;;;;;;5094872;28;20035;-47
2021/01/03 20:19:11;;;;;;;9.23;3.10;;;16.40;62.20;;;;;;5095054;28;20032;-46
2021/01/03 20:21:38;;;;;;;11.73;3.55;;;16.40;62.10;;;;;;5095016;28;20056;-46
2021/01/03 20:24:05;;;;;;;10.48;3.42;;;16.40;62.10;;;;;;5094797;28;20126;-46
2021/01/03 20:26:32;;;;;;;14.45;3.70;;;16.40;62.10;;;;;;5094904;28;20024;-46
2021/01/03 20:28:59;;;;;;;9.18;3.10;;;16.40;62.00;;;;;;5094996;28;20142;-46
2021/01/03 20:31:28;;;;;;;9.63;3.17;;;16.40;62.60;;;;;;5094701;28;20036;-46
2021/01/03 20:33:56;;;;;;;7.43;3.00;;;16.40;62.00;;;;;;5094788;28;20024;-46
2021/01/03 20:36:23;;;;;;;6.50;3.15;;;16.40;61.90;;;;;;5094726;28;20017;-46
2021/01/03 20:38:50;;;;;;;6.55;3.28;;;16.40;61.90;;;;;;5094610;28;20023;-46
2021/01/03 20:41:22;;;;;;;6.78;3.20;;;16.40;61.90;;;;;;5094953;28;20521;-46
2021/01/03 20:43:50;;;;;;;7.13;2.88;;;16.30;61.90;;;;;;5076445;28;20063;-46
2021/01/03 20:46:20;;;;;;;8.57;3.22;;;16.30;61.80;;;;;;5094432;28;20032;-46
2021/01/03 20:48:47;;;;;;;6.88;3.03;;;16.30;61.80;;;;;;5094542;28;20062;-46
2021/01/03 20:51:15;;;;;;;9.57;2.85;;;16.30;61.80;;;;;;5094469;28;20025;-46
2021/01/03 20:53:41;;;;;;;7.82;2.95;;;16.30;61.80;;;;;;5094009;28;20032;-46
2021/01/03 20:56:12;;;;;;;5.60;3.08;;;16.30;61.80;;;;;;5094539;28;20032;-46
2021/01/03 20:58:39;;;;;;;9.07;2.60;;;16.30;61.80;;;;;;5094137;28;20089;-46
2021/01/03 21:01:07;;;;;;;9.10;2.80;;;16.30;61.80;;;;;;5094260;28;20028;-46
2021/01/03 21:03:35;;;;;;;6.93;2.90;;;16.30;61.70;;;;;;5093842;28;20077;-46
2021/01/03 21:06:04;;;;;;;7.05;2.92;;;16.30;61.70;;;;;;5094240;28;20043;-46
2021/01/03 21:08:31;;;;;;;9.15;2.95;;;16.30;61.70;;;;;;5094166;28;20106;-46
2021/01/03 21:10:57;;;;;;;8.98;3.28;;;16.30;61.70;;;;;;5093873;28;20032;-46
2021/01/03 21:13:24;;;;;;;8.00;3.10;;;16.30;61.70;;;;;;5093876;28;20024;-46
2021/01/03 21:15:51;;;;;;;6.93;2.85;;;16.30;61.70;;;;;;5094057;28;20035;-46
2021/01/03 21:18:17;;;;;;;9.20;3.00;;;16.30;61.60;;;;;;5093702;28;20028;-46
2021/01/03 21:20:44;;;;;;;7.60;3.05;;;16.30;61.70;;;;;;5094002;28;20028;-46
2021/01/03 21:23:14;;;;;;;6.53;3.00;;;16.30;61.70;;;;;;5093803;28;20049;-46
2021/01/03 21:25:46;;;;;;;6.35;2.70;;;16.30;61.60;;;;;;5094749;28;20032;-46
2021/01/03 21:28:31;;;;;;;;;;;16.30;61.70;;;;;;5094152;28;20112;-46
2021/01/03 21:31:29;;;;;;;7.15;2.50;;;16.20;61.50;;;;;;5093571;28;19993;-46
2021/01/03 21:34:22;;;;;;;6.53;3.15;;;16.20;61.50;;;;;;5093956;28;20020;-46
2021/01/03 21:36:57;;;;;;;;;;;16.20;61.50;;;;;;5056091;28;20044;-46
2021/01/03 21:39:41;;;;;;;6.25;2.80;;;16.20;61.50;;;;;;5093901;28;19912;-46
2021/01/03 21:42:20;;;;;;;6.82;2.58;;;16.20;61.50;;;;;;5093673;28;20024;-46
2021/01/03 21:44:57;;;;;;;7.82;3.17;;;16.20;61.50;;;;;;5093857;28;20023;-46
2021/01/03 21:47:49;;;;;;;9.07;3.00;;;16.20;61.50;;;;;;5093551;28;20423;-46
2021/01/03 21:50:41;;;;;;;7.45;3.22;;;16.20;61.50;;;;;;5093636;28;20032;-46
2021/01/03 21:53:52;;;;;;;7.22;3.30;;;16.20;61.50;;;;;;5093595;28;20454;-46
2021/01/03 21:56:55;;;;;;;7.57;2.80;;;16.20;61.50;;;;;;5037814;28;20059;-46
2021/01/03 22:00:18;;;;;;;7.07;2.78;;;16.20;61.50;;;;;;5093358;28;20035;-46
2021/01/03 22:03:10;;;;;;;13.82;3.30;;;16.20;61.50;;;;;;4992216;28;20026;-46
2021/01/03 22:06:07;;;;;;;6.55;2.80;;;16.10;61.50;;;;;;4991538;28;20604;-46
2021/01/03 22:09:10;;;;;;;5.70;2.67;;;16.10;61.50;;;;;;5092029;28;20438;-46
2021/01/03 22:12:07;;;;;;;7.68;2.85;;;16.10;61.40;;;;;;5094194;28;20028;-46
2021/01/03 22:14:49;;;;;;;9.32;3.20;;;16.10;61.40;;;;;;5094114;28;20030;-46
2021/01/03 22:17:21;;;;;;;7.53;2.88;;;16.10;61.50;;;;;;5093301;28;20408;-46
2021/01/03 22:20:36;;;;;;;9.30;3.03;;;16.10;61.50;;;;;;5094327;28;20157;-46
2021/01/03 22:23:07;;;;;;;6.00;2.63;;;16.10;61.40;;;;;;4991880;28;20034;-46
2021/01/03 22:25:42;;;;;;;7.43;3.13;;;16.10;61.50;;;;;;5089125;28;20053;-46
2021/01/03 22:28:18;;;;;;;8.18;3.20;;;16.10;61.50;;;;;;5097451;28;20031;-46
2021/01/03 22:30:53;;;;;;;7.25;3.00;;;16.10;61.40;;;;;;5097820;28;20095;-46
2021/01/03 22:33:27;;;;;;;7.45;2.92;;;16.10;61.50;;;;;;5097853;28;20442;-46
2021/01/03 22:36:43;;;;;;;9.18;3.40;;;16.10;61.50;;;;;;5097579;28;20056;-46
2021/01/03 22:39:26;;;;;;;7.82;3.13;;;16.10;61.50;;;;;;5091876;28;20127;-46
2021/01/03 22:42:14;;;;;;;6.57;3.17;;;16.10;61.50;;;;;;5097580;28;20027;-46
2021/01/03 22:44:53;;;;;;;5.95;2.88;;;16.10;61.50;;;;;;5079365;28;20046;-46
2021/01/03 22:47:43;;;;;;;5.57;3.28;;;16.10;61.50;;;;;;5096786;28;20028;-46
2021/01/03 22:50:34;;;;;;;6.95;2.97;;;16.00;61.50;;;;;;5096539;28;20393;-46
2021/01/03 22:53:22;;;;;;;9.15;2.72;;;16.10;61.50;;;;;;5078634;28;20377;-46
2021/01/03 22:56:12;;;;;;;5.78;3.13;;;16.10;61.50;;;;;;5096806;28;20035;-46
2021/01/03 22:59:04;;;;;;;7.75;3.70;;;16.00;61.50;;;;;;5096606;28;20028;-46
2021/01/03 23:01:59;;;;;;;6.53;3.30;;;16.00;61.40;;;;;;5096713;28;20055;-46
2021/01/03 23:04:36;;;;;;;8.15;3.58;;;16.00;61.40;;;;;;5096595;28;20031;-46
2021/01/03 23:07:22;;;;;;;7.25;3.35;;;16.00;61.40;;;;;;5096323;28;20542;-46
2021/01/03 23:09:56;;;;;;;7.10;3.30;;;16.00;61.50;;;;;;5097073;28;20024;-46
2021/01/03 23:12:39;;;;;;;7.45;3.45;;;16.00;61.50;;;;;;5095989;28;20055;-46
2021/01/03 23:15:32;;;;;;;7.35;3.60;;;16.00;61.40;;;;;;5096147;28;20025;-46
2021/01/03 23:18:10;;;;;;;7.45;3.45;;;16.00;61.50;;;;;;5095986;28;20098;-46
2021/01/03 23:20:59;;;;;;;8.52;3.45;;;16.00;61.40;;;;;;5096277;28;20111;-46
2021/01/03 23:23:27;;;;;;;12.68;3.70;;;15.90;61.40;;;;;;5096846;28;20016;-46
2021/01/03 23:25:53;;;;;;;7.30;3.55;;;16.00;61.40;;;;;;5096182;28;20056;-46
2021/01/03 23:28:22;;;;;;;7.25;3.53;;;15.90;61.40;;;;;;5095828;28;20024;-46
2021/01/03 23:30:58;;;;;;;7.20;3.50;;;15.90;62.00;;;;;;5096041;28;20027;-46
2021/01/03 23:33:30;;;;;;;9.13;3.63;;;16.00;61.40;;;;;;5096039;28;20054;-46
2021/01/03 23:36:07;;;;;;;9.10;3.95;;;15.90;61.40;;;;;;5096063;28;20500;-46
2021/01/03 23:38:42;;;;;;;8.52;3.80;;;15.90;61.40;;;;;;5095707;28;20039;-46
2021/01/03 23:41:16;;;;;;;6.90;3.60;;;15.90;61.40;;;;;;5095500;28;20507;-46
2021/01/03 23:43:52;;;;;;;7.57;3.60;;;15.90;61.30;;;;;;5096125;28;20120;-46
2021/01/03 23:46:49;;;;;;;8.93;4.18;;;15.90;61.40;;;;;;5095661;28;20031;-46
2021/01/03 23:49:34;;;;;;;8.48;3.47;;;15.90;61.40;;;;;;5095322;28;20451;-46
2021/01/03 23:52:38;;;;;;;8.07;3.53;;;15.90;61.30;;;;;;5095795;28;20040;-46
2021/01/03 23:55:07;;;;;;;7.80;3.60;;;15.90;61.30;;;;;;5095510;28;20444;-46
2021/01/03 23:58:23;;;;;;;6.68;3.17;;;15.90;61.40;;;;;;5095979;28;20059;-46
